Time,TemperatureF,DewpointF,PressureIn,WindDirection,WindDirectionDegrees,WindSpeedMPH,WindSpeedGustMPH,Humidity,HourlyPrecipIn,Conditions,Clouds,dailyrainin,SoftwareType,DateUTC
2013-06-07 00:02:00,72.7,54.6,29.95,NE,34,8.1,8.1,53,0.00,,---,0.00,VWS V14.01,2013-06-07 05:02:00,
2013-06-07 00:07:00,72.7,54.6,29.95,NE,41,4.9,4.9,53,0.00,,---,0.00,VWS V14.01,2013-06-07 05:07:00,
2013-06-07 00:12:00,72.7,54.6,29.95,ENE,74,3.6,3.6,53,0.00,,---,0.00,VWS V14.01,2013-06-07 05:12:00,
2013-06-07 00:17:00,72.7,55.1,29.95,ENE,72,3.6,3.6,54,0.00,,---,0.00,VWS V14.01,2013-06-07 05:17:00,
2013-06-07 00:22:00,72.5,54.9,29.95,East,80,2.2,2.2,54,0.00,,---,0.00,VWS V14.01,2013-06-07 05:22:00,
2013-06-07 00:27:00,72.5,55.4,29.95,ENE,60,5.8,5.8,55,0.00,,---,0.00,VWS V14.01,2013-06-07 05:27:00,
2013-06-07 00:32:00,72.3,55.8,29.95,ESE,105,3.1,3.1,56,0.00,,---,0.00,VWS V14.01,2013-06-07 05:32:00,
2013-06-07 00:37:00,72.1,55.6,29.95,NNE,16,5.8,5.8,56,0.00,,---,0.00,VWS V14.01,2013-06-07 05:37:00,
2013-06-07 00:42:00,71.8,55.8,29.95,NE,48,4.0,4.0,57,0.00,,---,0.00,VWS V14.01,2013-06-07 05:42:00,
2013-06-07 00:47:00,71.8,56.2,29.95,ESE,110,2.7,4.0,58,0.00,,---,0.00,VWS V14.01,2013-06-07 05:47:00,
2013-06-07 00:52:00,71.8,56.2,29.95,ENE,64,2.2,2.2,58,0.00,,---,0.00,VWS V14.01,2013-06-07 05:52:00,
2013-06-07 00:57:00,71.6,56.5,29.95,East,90,3.1,3.1,59,0.00,,---,0.00,VWS V14.01,2013-06-07 05:57:00,
2013-06-07 01:02:00,71.4,56.8,29.95,ENE,63,5.4,5.4,60,0.00,,---,0.00,VWS V14.01,2013-06-07 06:02:00,
2013-06-07 01:07:00,71.1,56.5,29.95,NE,39,3.6,3.6,60,0.00,,---,0.00,VWS V14.01,2013-06-07 06:07:00,
2013-06-07 01:12:00,71.1,57.0,29.95,NE,50,4.0,4.0,61,0.00,,---,0.00,VWS V14.01,2013-06-07 06:12:00,
2013-06-07 01:17:00,70.7,56.6,29.95,NE,52,5.4,5.4,61,0.00,,---,0.00,VWS V14.01,2013-06-07 06:17:00,
2013-06-07 01:22:00,70.5,56.9,29.95,NE,42,5.4,5.4,62,0.00,,---,0.00,VWS V14.01,2013-06-07 06:22:00,
2013-06-07 01:27:00,70.3,56.7,29.95,East,82,4.9,4.9,62,0.00,,---,0.00,VWS V14.01,2013-06-07 06:27:00,
2013-06-07 01:32:00,70.2,57.0,29.95,NE,52,3.1,3.1,63,0.00,,---,0.00,VWS V14.01,2013-06-07 06:32:00,
2013-06-07 01:37:00,70.2,57.0,29.95,NE,52,3.1,3.1,63,0.00,,---,0.00,VWS V14.01,2013-06-07 06:37:00,
2013-06-07 01:42:00,70.0,56.8,29.95,ESE,120,4.9,4.9,63,0.00,,---,0.00,VWS V14.01,2013-06-07 06:42:00,
2013-06-07 01:47:00,69.6,56.9,29.95,NE,54,6.3,6.3,64,0.00,,---,0.00,VWS V14.01,2013-06-07 06:47:00,
2013-06-07 01:52:00,69.4,57.2,29.95,NE,54,8.1,8.1,65,0.00,,---,0.00,VWS V14.01,2013-06-07 06:52:00,
2013-06-07 01:57:00,69.4,57.2,29.95,ENE,65,6.3,6.3,65,0.00,,---,0.00,VWS V14.01,2013-06-07 06:57:00,
2013-06-07 02:02:00,69.3,57.0,29.95,NE,48,3.6,3.6,65,0.00,,---,0.00,VWS V14.01,2013-06-07 07:02:00,
2013-06-07 02:07:00,69.1,56.8,29.95,East,85,3.1,3.1,65,0.00,,---,0.00,VWS V14.01,2013-06-07 07:07:00,
2013-06-07 02:12:00,68.9,57.1,29.95,NE,43,4.0,4.0,66,0.00,,---,0.00,VWS V14.01,2013-06-07 07:12:00,
2013-06-07 02:17:00,68.7,56.9,29.95,NE,54,4.0,4.0,66,0.00,,---,0.00,VWS V14.01,2013-06-07 07:17:00,
2013-06-07 02:22:00,68.5,57.2,29.95,NE,37,3.6,3.6,67,0.00,,---,0.00,VWS V14.01,2013-06-07 07:22:00,
2013-06-07 02:27:00,68.5,57.2,29.95,NNE,22,3.1,5.8,67,0.00,,---,0.00,VWS V14.01,2013-06-07 07:27:00,
2013-06-07 02:32:00,68.4,57.4,29.95,NNE,22,3.1,3.1,68,0.00,,---,0.00,VWS V14.01,2013-06-07 07:32:00,
2013-06-07 02:37:00,68.2,57.2,29.95,NE,41,5.8,5.8,68,0.00,,---,0.00,VWS V14.01,2013-06-07 07:37:00,
2013-06-07 02:42:00,68.2,57.2,29.95,NNE,33,4.0,4.0,68,0.00,,---,0.00,VWS V14.01,2013-06-07 07:42:00,
2013-06-07 02:47:00,68.0,57.5,29.95,NE,46,5.4,5.4,69,0.00,,---,0.00,VWS V14.01,2013-06-07 07:47:00,
2013-06-07 02:52:00,68.0,57.5,29.95,NE,34,2.7,2.7,69,0.00,,---,0.00,VWS V14.01,2013-06-07 07:52:00,
2013-06-07 02:57:00,68.0,57.5,29.95,NE,39,3.1,3.1,69,0.00,,---,0.00,VWS V14.01,2013-06-07 07:57:00,
2013-06-07 03:02:00,67.8,57.7,29.95,NE,48,5.4,5.4,70,0.00,,---,0.00,VWS V14.01,2013-06-07 08:02:00,
2013-06-07 03:07:00,67.8,57.7,29.95,NE,44,6.3,6.3,70,0.00,,---,0.00,VWS V14.01,2013-06-07 08:07:00,
2013-06-07 03:12:00,67.8,57.7,29.95,NE,39,6.3,6.3,70,0.00,,---,0.00,VWS V14.01,2013-06-07 08:12:00,
2013-06-07 03:17:00,67.8,58.1,29.95,NE,44,8.1,8.1,71,0.00,,---,0.00,VWS V14.01,2013-06-07 08:17:00,
2013-06-07 03:22:00,67.8,58.1,29.95,NE,49,7.6,8.1,71,0.00,,---,0.00,VWS V14.01,2013-06-07 08:22:00,
2013-06-07 03:27:00,68.0,58.3,29.95,NE,44,8.1,8.1,71,0.00,,---,0.00,VWS V14.01,2013-06-07 08:27:00,
2013-06-07 03:32:00,68.0,58.3,29.95,ENE,59,6.3,10.5,71,0.00,,---,0.00,VWS V14.01,2013-06-07 08:32:00,
2013-06-07 03:37:00,68.0,58.3,29.92,East,90,8.7,8.7,71,0.00,,---,0.00,VWS V14.01,2013-06-07 08:37:00,
2013-06-07 03:42:00,68.0,58.3,29.92,ENE,61,12.3,12.3,71,0.00,,---,0.00,VWS V14.01,2013-06-07 08:42:00,
2013-06-07 03:47:00,68.0,58.3,29.92,NE,43,5.8,5.8,71,0.00,,---,0.00,VWS V14.01,2013-06-07 08:47:00,
2013-06-07 03:52:00,67.8,58.1,29.92,NE,49,4.9,4.9,71,0.00,,---,0.00,VWS V14.01,2013-06-07 08:52:00,
2013-06-07 03:57:00,67.8,58.1,29.95,NE,44,2.2,5.4,71,0.00,,---,0.00,VWS V14.01,2013-06-07 08:57:00,
2013-06-07 04:02:00,67.6,57.9,29.95,NE,44,2.2,2.2,71,0.00,,---,0.00,VWS V14.01,2013-06-07 09:02:00,
2013-06-07 04:07:00,67.6,58.3,29.95,ENE,71,3.6,3.6,72,0.00,,---,0.00,VWS V14.01,2013-06-07 09:07:00,
2013-06-07 04:12:00,67.5,58.1,29.95,NE,49,4.0,4.0,72,0.00,,---,0.00,VWS V14.01,2013-06-07 09:12:00,
2013-06-07 04:17:00,67.3,58.0,29.95,NE,37,2.7,2.7,72,0.00,,---,0.00,VWS V14.01,2013-06-07 09:17:00,
2013-06-07 04:22:00,67.1,57.8,29.95,NE,39,3.1,3.1,72,0.00,,---,0.00,VWS V14.01,2013-06-07 09:22:00,
2013-06-07 04:27:00,66.9,58.0,29.95,NNE,30,5.4,5.4,73,0.00,,---,0.00,VWS V14.01,2013-06-07 09:27:00,
2013-06-07 04:32:00,66.7,57.8,29.95,NNE,32,6.7,6.7,73,0.00,,---,0.00,VWS V14.01,2013-06-07 09:32:00,
2013-06-07 04:37:00,66.6,58.0,29.92,NE,51,4.0,6.3,74,0.00,,---,0.00,VWS V14.01,2013-06-07 09:37:00,
2013-06-07 04:42:00,66.6,58.4,29.92,ENE,60,7.6,7.6,75,0.00,,---,0.00,VWS V14.01,2013-06-07 09:42:00,
2013-06-07 04:47:00,66.4,58.2,29.92,ENE,61,5.4,5.4,75,0.00,,---,0.00,VWS V14.01,2013-06-07 09:47:00,
2013-06-07 04:52:00,66.4,58.6,29.92,NE,42,4.9,4.9,76,0.00,,---,0.00,VWS V14.01,2013-06-07 09:52:00,
2013-06-07 04:57:00,66.4,58.6,29.92,NE,38,5.4,5.4,76,0.00,,---,0.00,VWS V14.01,2013-06-07 09:57:00,
2013-06-07 05:02:00,66.2,58.8,29.92,NE,50,2.2,2.2,77,0.00,,---,0.00,VWS V14.01,2013-06-07 10:02:00,
2013-06-07 05:07:00,66.2,58.8,29.92,NNE,18,3.1,3.1,77,0.00,,---,0.00,VWS V14.01,2013-06-07 10:07:00,
2013-06-07 05:12:00,66.2,58.8,29.92,NNE,33,0.0,0.0,77,0.00,,---,0.00,VWS V14.01,2013-06-07 10:12:00,
2013-06-07 05:17:00,66.0,59.0,29.92,East,87,3.6,3.6,78,0.00,,---,0.00,VWS V14.01,2013-06-07 10:17:00,
2013-06-07 05:22:00,65.8,58.8,29.92,ENE,74,0.0,0.0,78,0.00,,---,0.00,VWS V14.01,2013-06-07 10:22:00,
2013-06-07 05:27:00,65.8,59.2,29.92,East,93,0.0,0.0,79,0.00,,---,0.00,VWS V14.01,2013-06-07 10:27:00,
2013-06-07 05:32:00,65.8,59.2,29.92,ENE,58,3.1,3.1,79,0.00,,---,0.00,VWS V14.01,2013-06-07 10:32:00,
2013-06-07 05:37:00,65.7,59.0,29.95,NE,49,3.1,3.1,79,0.00,,---,0.00,VWS V14.01,2013-06-07 10:37:00,
2013-06-07 05:42:00,65.5,59.2,29.95,NNE,31,4.0,4.0,80,0.00,,---,0.00,VWS V14.01,2013-06-07 10:42:00,
2013-06-07 05:47:00,65.5,59.2,29.95,NE,48,5.8,5.8,80,0.00,,---,0.00,VWS V14.01,2013-06-07 10:47:00,
2013-06-07 05:52:00,65.3,59.3,29.92,NNE,29,5.4,5.4,81,0.00,,---,0.00,VWS V14.01,2013-06-07 10:52:00,
2013-06-07 05:57:00,65.3,59.3,29.92,NE,49,4.0,4.0,81,0.00,,---,0.00,VWS V14.01,2013-06-07 10:57:00,
2013-06-07 06:02:00,65.3,59.3,29.92,NNE,30,3.6,3.6,81,0.00,,---,0.00,VWS V14.01,2013-06-07 11:02:00,
2013-06-07 06:07:00,65.3,59.7,29.92,NE,34,3.6,3.6,82,0.00,,---,0.00,VWS V14.01,2013-06-07 11:07:00,
2013-06-07 06:12:00,65.3,59.7,29.92,NE,34,5.4,5.4,82,0.00,,---,0.00,VWS V14.01,2013-06-07 11:12:00,
2013-06-07 06:17:00,65.3,59.7,29.92,NE,35,6.3,6.3,82,0.00,,---,0.00,VWS V14.01,2013-06-07 11:17:00,
2013-06-07 06:22:00,65.3,59.7,29.92,NNE,28,5.8,5.8,82,0.00,,---,0.00,VWS V14.01,2013-06-07 11:22:00,
2013-06-07 06:27:00,65.3,59.7,29.92,NE,52,5.4,5.8,82,0.00,,---,0.00,VWS V14.01,2013-06-07 11:27:00,
2013-06-07 06:32:00,65.3,60.0,29.92,ESE,105,3.1,3.1,83,0.00,,---,0.00,VWS V14.01,2013-06-07 11:32:00,
2013-06-07 06:37:00,65.3,60.0,29.92,NE,44,5.4,5.4,83,0.00,,---,0.00,VWS V14.01,2013-06-07 11:37:00,
2013-06-07 06:42:00,65.3,60.0,29.92,ENE,62,5.8,5.8,83,0.00,,---,0.00,VWS V14.01,2013-06-07 11:42:00,
2013-06-07 06:47:00,65.3,60.0,29.92,ENE,71,0.0,0.0,83,0.00,,---,0.00,VWS V14.01,2013-06-07 11:47:00,
2013-06-07 06:52:00,65.3,60.0,29.95,NE,40,8.1,8.1,83,0.00,,---,0.00,VWS V14.01,2013-06-07 11:52:00,
2013-06-07 06:57:00,65.3,60.0,29.95,NE,40,8.1,8.1,83,0.00,,---,0.00,VWS V14.01,2013-06-07 11:57:00,
2013-06-07 07:02:00,65.3,60.0,29.95,NNE,29,5.4,5.4,83,0.00,,---,0.00,VWS V14.01,2013-06-07 12:02:00,
2013-06-07 07:07:00,64.9,60.3,29.95,NE,43,6.3,6.3,85,0.00,,---,0.00,VWS V14.01,2013-06-07 12:07:00,
2013-06-07 07:12:00,64.9,60.3,29.95,NE,43,6.3,8.7,85,0.00,,---,0.00,VWS V14.01,2013-06-07 12:12:00,
2013-06-07 07:17:00,64.9,60.3,29.95,ENE,73,8.7,8.7,85,0.00,,---,0.00,VWS V14.01,2013-06-07 12:17:00,
2013-06-07 07:22:00,64.9,60.3,29.95,NNE,31,6.3,6.3,85,0.00,,---,0.00,VWS V14.01,2013-06-07 12:22:00,
2013-06-07 07:27:00,64.9,60.3,29.95,East,87,3.6,8.7,85,0.00,,---,0.00,VWS V14.01,2013-06-07 12:27:00,
2013-06-07 07:32:00,64.9,60.3,29.95,NNE,33,5.8,5.8,85,0.00,,---,0.00,VWS V14.01,2013-06-07 12:32:00,
2013-06-07 07:37:00,64.9,60.3,29.95,North,4,3.1,3.1,85,0.00,,---,0.00,VWS V14.01,2013-06-07 12:37:00,
2013-06-07 07:42:00,65.8,62.2,29.95,NNE,27,5.8,5.8,88,0.00,,---,0.00,VWS V14.01,2013-06-07 12:42:00,
2013-06-07 07:47:00,65.8,62.2,29.95,NE,51,3.6,3.6,88,0.00,,---,0.00,VWS V14.01,2013-06-07 12:47:00,
2013-06-07 07:52:00,65.8,62.2,29.95,NE,36,8.7,8.7,88,0.00,,---,0.00,VWS V14.01,2013-06-07 12:52:00,
2013-06-07 07:57:00,65.8,62.2,29.95,NE,36,8.1,8.1,88,0.00,,---,0.00,VWS V14.01,2013-06-07 12:57:00,
2013-06-07 08:02:00,65.8,62.2,29.95,ESE,112,8.1,8.1,88,0.00,,---,0.00,VWS V14.01,2013-06-07 13:02:00,
2013-06-07 08:07:00,65.8,62.2,29.95,NE,38,5.8,5.8,88,0.00,,---,0.00,VWS V14.01,2013-06-07 13:07:00,
2013-06-07 08:12:00,65.8,62.2,29.95,NE,35,7.6,7.6,88,0.00,,---,0.00,VWS V14.01,2013-06-07 13:12:00,
2013-06-07 08:17:00,65.8,62.2,29.95,NNE,32,7.6,7.6,88,0.00,,---,0.00,VWS V14.01,2013-06-07 13:17:00,
2013-06-07 08:22:00,65.8,62.2,29.98,NE,53,5.8,5.8,88,0.00,,---,0.00,VWS V14.01,2013-06-07 13:22:00,
2013-06-07 08:27:00,65.8,62.2,29.98,NE,52,5.4,5.8,88,0.00,,---,0.00,VWS V14.01,2013-06-07 13:27:00,
2013-06-07 08:32:00,65.8,62.2,29.98,ENE,63,8.1,8.1,88,0.00,,---,0.00,VWS V14.01,2013-06-07 13:32:00,
2013-06-07 08:37:00,65.8,62.2,29.98,NE,41,5.8,8.3,88,0.00,,---,0.00,VWS V14.01,2013-06-07 13:37:00,
2013-06-07 08:42:00,65.8,62.2,29.98,ESE,107,6.3,6.3,88,0.00,,---,0.00,VWS V14.01,2013-06-07 13:42:00,
2013-06-07 08:47:00,65.8,62.2,29.98,NE,39,3.6,3.6,88,0.00,,---,0.00,VWS V14.01,2013-06-07 13:47:00,
2013-06-07 08:52:00,65.8,62.2,29.98,NE,43,8.7,8.7,88,0.00,,---,0.00,VWS V14.01,2013-06-07 13:52:00,
2013-06-07 08:57:00,65.8,62.2,29.98,NNE,29,5.8,5.8,88,0.00,,---,0.00,VWS V14.01,2013-06-07 13:57:00,
2013-06-07 09:02:00,65.8,62.2,29.98,NE,52,6.3,6.3,88,0.00,,---,0.00,VWS V14.01,2013-06-07 14:02:00,
2013-06-07 09:07:00,65.8,62.2,29.98,ENE,74,4.0,4.0,88,0.00,,---,0.00,VWS V14.01,2013-06-07 14:07:00,
2013-06-07 09:12:00,65.8,62.2,29.98,ENE,57,5.4,5.4,88,0.00,,---,0.00,VWS V14.01,2013-06-07 14:12:00,
2013-06-07 09:17:00,65.8,62.2,29.98,NE,35,5.8,5.8,88,0.00,,---,0.00,VWS V14.01,2013-06-07 14:17:00,
2013-06-07 09:22:00,65.8,62.2,30.01,NNE,29,8.3,8.3,88,0.00,,---,0.00,VWS V14.01,2013-06-07 14:22:00,
2013-06-07 09:27:00,65.8,62.2,30.01,NNE,23,10.5,10.5,88,0.00,,---,0.00,VWS V14.01,2013-06-07 14:27:00,
2013-06-07 09:32:00,65.8,62.2,30.01,NNE,29,5.8,7.2,88,0.00,,---,0.00,VWS V14.01,2013-06-07 14:32:00,
2013-06-07 09:37:00,65.8,62.2,30.01,North,8,6.3,6.3,88,0.00,,---,0.00,VWS V14.01,2013-06-07 14:37:00,
2013-06-07 09:42:00,65.8,62.2,30.01,NNE,21,10.5,10.5,88,0.00,,---,0.00,VWS V14.01,2013-06-07 14:42:00,
2013-06-07 09:47:00,65.8,62.2,30.04,NNE,26,6.3,6.3,88,0.00,,---,0.00,VWS V14.01,2013-06-07 14:47:00,
2013-06-07 09:52:00,65.8,62.2,30.04,NNE,19,5.8,5.8,88,0.00,,---,0.00,VWS V14.01,2013-06-07 14:52:00,
2013-06-07 09:57:00,65.8,62.2,30.04,North,357,8.1,8.1,88,0.00,,---,0.00,VWS V14.01,2013-06-07 14:57:00,
2013-06-07 10:02:00,65.8,62.2,30.04,NNE,19,5.8,5.8,88,0.00,,---,0.00,VWS V14.01,2013-06-07 15:02:00,
2013-06-07 10:07:00,65.8,62.2,30.04,North,10,10.1,10.1,88,0.00,,---,0.00,VWS V14.01,2013-06-07 15:07:00,
2013-06-07 10:12:00,65.8,62.2,30.04,NNE,24,5.4,5.4,88,0.00,,---,0.00,VWS V14.01,2013-06-07 15:12:00,
2013-06-07 10:17:00,65.8,62.2,30.04,NNE,17,8.3,8.3,88,0.00,,---,0.00,VWS V14.01,2013-06-07 15:17:00,
2013-06-07 10:22:00,65.8,62.2,30.04,North,7,5.8,5.8,88,0.00,,---,0.00,VWS V14.01,2013-06-07 15:22:00,
2013-06-07 10:27:00,65.8,62.2,30.04,NNW,346,8.1,8.1,88,0.00,,---,0.00,VWS V14.01,2013-06-07 15:27:00,
2013-06-07 10:32:00,65.8,62.2,30.04,North,353,12.3,12.3,88,0.00,,---,0.00,VWS V14.01,2013-06-07 15:32:00,
2013-06-07 10:37:00,65.8,62.2,30.04,NNE,30,5.8,5.8,88,0.00,,---,0.00,VWS V14.01,2013-06-07 15:37:00,
2013-06-07 10:42:00,65.8,62.2,30.04,North,8,5.4,6.7,88,0.00,,---,0.00,VWS V14.01,2013-06-07 15:42:00,
2013-06-07 10:47:00,65.8,62.2,30.01,NE,38,6.3,6.3,88,0.00,,---,0.00,VWS V14.01,2013-06-07 15:47:00,
2013-06-07 10:52:00,65.8,62.2,30.01,NE,37,7.6,8.1,88,0.00,,---,0.00,VWS V14.01,2013-06-07 15:52:00,
2013-06-07 10:57:00,65.8,62.2,30.01,NE,46,10.1,11.4,88,0.00,,---,0.00,VWS V14.01,2013-06-07 15:57:00,
2013-06-07 11:02:00,65.8,62.2,30.01,North,357,4.0,4.0,88,0.00,,---,0.00,VWS V14.01,2013-06-07 16:02:00,
2013-06-07 11:07:00,65.8,62.2,30.01,NNE,30,5.8,5.8,88,0.00,,---,0.00,VWS V14.01,2013-06-07 16:07:00,
2013-06-07 11:12:00,65.8,62.2,30.01,NE,51,6.3,6.3,88,0.00,,---,0.00,VWS V14.01,2013-06-07 16:12:00,
2013-06-07 11:17:00,65.8,62.2,30.01,NNE,12,4.0,4.0,88,0.00,,---,0.00,VWS V14.01,2013-06-07 16:17:00,
2013-06-07 11:22:00,65.8,62.2,29.98,NE,45,4.9,4.9,88,0.00,,---,0.00,VWS V14.01,2013-06-07 16:22:00,
2013-06-07 11:27:00,65.8,62.2,29.98,NE,51,7.2,7.2,88,0.00,,---,0.00,VWS V14.01,2013-06-07 16:27:00,
2013-06-07 11:32:00,65.8,62.2,29.98,NE,39,5.8,5.8,88,0.00,,---,0.00,VWS V14.01,2013-06-07 16:32:00,
2013-06-07 11:37:00,65.8,62.2,29.98,NE,50,6.3,6.3,88,0.00,,---,0.00,VWS V14.01,2013-06-07 16:37:00,
2013-06-07 11:42:00,65.8,62.2,29.98,NE,35,8.7,8.7,88,0.00,,---,0.00,VWS V14.01,2013-06-07 16:42:00,
2013-06-07 11:47:00,65.8,62.2,29.98,ENE,74,2.7,2.7,88,0.00,,---,0.00,VWS V14.01,2013-06-07 16:47:00,
2013-06-07 11:52:00,65.8,62.2,29.98,NNE,30,3.6,5.4,88,0.00,,---,0.00,VWS V14.01,2013-06-07 16:52:00,
2013-06-07 11:57:00,65.8,62.2,29.98,NE,35,5.4,5.4,88,0.00,,---,0.00,VWS V14.01,2013-06-07 16:57:00,
2013-06-07 12:02:00,69.6,59.4,29.98,East,88,3.1,3.1,70,0.00,,---,0.00,VWS V14.01,2013-06-07 17:02:00,
2013-06-07 12:07:00,69.6,59.4,29.98,NE,46,6.3,6.3,70,0.00,,---,0.00,VWS V14.01,2013-06-07 17:07:00,
2013-06-07 12:12:00,69.6,59.4,29.98,ESE,118,2.7,2.7,70,0.00,,---,0.00,VWS V14.01,2013-06-07 17:12:00,
2013-06-07 12:17:00,69.6,59.4,29.98,ENE,58,3.6,3.6,70,0.00,,---,0.00,VWS V14.01,2013-06-07 17:17:00,
2013-06-07 12:22:00,69.6,59.4,29.98,NE,44,3.1,3.1,70,0.00,,---,0.00,VWS V14.01,2013-06-07 17:22:00,
2013-06-07 12:27:00,69.6,59.4,29.98,NE,51,4.9,4.9,70,0.00,,---,0.00,VWS V14.01,2013-06-07 17:27:00,
2013-06-07 12:32:00,70.9,59.8,29.98,ENE,76,2.7,2.7,68,0.00,,---,0.00,VWS V14.01,2013-06-07 17:32:00,
2013-06-07 12:37:00,70.9,59.8,30.01,NNW,343,0.0,0.0,68,0.00,,---,0.00,VWS V14.01,2013-06-07 17:37:00,
2013-06-07 12:42:00,70.9,59.8,30.01,NE,54,2.7,2.7,68,0.00,,---,0.00,VWS V14.01,2013-06-07 17:42:00,
2013-06-07 12:47:00,70.9,59.8,30.01,ESE,121,3.1,3.1,68,0.00,,---,0.00,VWS V14.01,2013-06-07 17:47:00,
2013-06-07 12:52:00,70.9,59.8,30.01,ESE,113,0.0,0.0,68,0.00,,---,0.00,VWS V14.01,2013-06-07 17:52:00,
2013-06-07 12:58:00,70.9,59.8,30.01,ESE,113,0.0,0.0,68,0.00,,---,0.00,VWS V14.01,2013-06-07 17:58:00,
2013-06-07 13:03:00,70.9,59.8,30.01,NW,309,4.0,4.0,68,0.00,,---,0.00,VWS V14.01,2013-06-07 18:03:00,
2013-06-07 13:08:00,71.8,59.0,30.01,North,5,3.1,3.1,64,0.00,,---,0.00,VWS V14.01,2013-06-07 18:08:00,
2013-06-07 13:13:00,71.8,59.0,30.01,NNW,327,3.6,4.0,64,0.00,,---,0.00,VWS V14.01,2013-06-07 18:13:00,
2013-06-07 13:18:00,71.8,59.0,30.01,NW,309,6.3,6.3,64,0.00,,---,0.00,VWS V14.01,2013-06-07 18:18:00,
2013-06-07 13:23:00,71.8,59.0,30.01,WNW,286,5.8,5.8,64,0.00,,---,0.00,VWS V14.01,2013-06-07 18:23:00,
2013-06-07 13:28:00,71.8,59.0,30.01,NW,311,5.4,5.4,64,0.00,,---,0.00,VWS V14.01,2013-06-07 18:28:00,
2013-06-07 13:33:00,71.8,59.0,30.04,West,270,2.7,4.0,64,0.00,,---,0.00,VWS V14.01,2013-06-07 18:33:00,
2013-06-07 13:38:00,71.4,58.6,30.04,WNW,294,3.1,4.9,64,0.00,,---,0.00,VWS V14.01,2013-06-07 18:38:00,
2013-06-07 13:43:00,71.4,58.6,30.04,WSW,240,2.2,2.2,64,0.00,,---,0.00,VWS V14.01,2013-06-07 18:43:00,
2013-06-07 13:48:00,71.4,58.6,30.04,WNW,284,5.8,5.8,64,0.00,,---,0.00,VWS V14.01,2013-06-07 18:48:00,
2013-06-07 13:53:00,71.4,58.6,30.04,WSW,243,4.0,4.0,64,0.00,,---,0.00,VWS V14.01,2013-06-07 18:53:00,
2013-06-07 13:58:00,71.4,58.6,30.01,West,276,6.3,6.3,64,0.00,,---,0.00,VWS V14.01,2013-06-07 18:58:00,
2013-06-07 14:03:00,71.4,58.6,30.01,West,260,3.6,3.6,64,0.00,,---,0.00,VWS V14.01,2013-06-07 19:03:00,
2013-06-07 14:08:00,70.9,57.7,30.01,WSW,243,6.3,6.3,63,0.00,,---,0.00,VWS V14.01,2013-06-07 19:08:00,
2013-06-07 14:13:00,70.9,57.7,30.01,SW,222,2.7,2.7,63,0.00,,---,0.00,VWS V14.01,2013-06-07 19:13:00,
2013-06-07 14:18:00,70.9,57.7,30.01,SW,233,5.8,5.8,63,0.00,,---,0.00,VWS V14.01,2013-06-07 19:18:00,
2013-06-07 14:23:00,70.9,57.7,30.01,SSW,197,3.6,4.9,63,0.00,,---,0.00,VWS V14.01,2013-06-07 19:23:00,
2013-06-07 14:28:00,70.9,57.7,30.01,SW,219,3.6,3.6,63,0.00,,---,0.00,VWS V14.01,2013-06-07 19:28:00,
2013-06-07 14:34:00,70.9,57.7,29.98,West,259,3.6,3.6,63,0.00,,---,0.00,VWS V14.01,2013-06-07 19:34:00,
2013-06-07 14:39:00,71.2,58.0,29.98,SSW,207,4.0,4.0,63,0.00,,---,0.00,VWS V14.01,2013-06-07 19:39:00,
2013-06-07 14:44:00,71.2,58.0,29.98,SSE,165,5.8,5.8,63,0.00,,---,0.00,VWS V14.01,2013-06-07 19:44:00,
2013-06-07 14:49:00,71.2,58.0,29.98,SW,215,4.0,4.0,63,0.00,,---,0.00,VWS V14.01,2013-06-07 19:49:00,
2013-06-07 14:54:00,71.2,58.0,29.98,SSW,205,3.1,3.6,63,0.00,,---,0.00,VWS V14.01,2013-06-07 19:54:00,
2013-06-07 14:59:00,71.2,58.0,29.98,South,180,4.9,4.9,63,0.00,,---,0.00,VWS V14.01,2013-06-07 19:59:00,
2013-06-07 15:04:00,72.0,59.1,29.98,South,183,2.7,3.6,64,0.00,,---,0.00,VWS V14.01,2013-06-07 20:04:00,
2013-06-07 15:09:00,72.1,59.3,29.98,South,183,2.7,2.7,64,0.00,,---,0.00,VWS V14.01,2013-06-07 20:09:00,
2013-06-07 15:14:00,72.1,59.3,29.98,South,175,3.1,3.1,64,0.00,,---,0.00,VWS V14.01,2013-06-07 20:14:00,
2013-06-07 15:19:00,72.5,59.6,29.95,South,175,3.1,3.1,64,0.00,,---,0.00,VWS V14.01,2013-06-07 20:19:00,
2013-06-07 15:24:00,72.5,59.6,29.95,SSW,201,6.3,6.3,64,0.00,,---,0.00,VWS V14.01,2013-06-07 20:24:00,
2013-06-07 15:29:00,72.5,59.6,29.95,SSE,155,3.1,3.1,64,0.00,,---,0.00,VWS V14.01,2013-06-07 20:29:00,
2013-06-07 15:34:00,72.5,59.6,29.95,SSE,154,2.7,2.7,64,0.00,,---,0.00,VWS V14.01,2013-06-07 20:34:00,
2013-06-07 15:39:00,72.9,59.5,29.95,SSE,154,0.0,0.0,63,0.00,,---,0.00,VWS V14.01,2013-06-07 20:39:00,
2013-06-07 15:44:00,72.9,59.5,29.95,SW,233,0.0,0.0,63,0.00,,---,0.00,VWS V14.01,2013-06-07 20:44:00,
2013-06-07 15:49:00,72.9,59.1,29.95,East,89,0.0,0.0,62,0.00,,---,0.00,VWS V14.01,2013-06-07 20:49:00,
2013-06-07 15:55:00,72.9,59.1,29.95,ENE,74,0.0,0.0,62,0.00,,---,0.00,VWS V14.01,2013-06-07 20:55:00,
2013-06-07 16:00:00,73.0,59.3,29.95,ENE,65,4.0,4.0,62,0.00,,---,0.00,VWS V14.01,2013-06-07 21:00:00,
2013-06-07 16:05:00,73.2,59.0,29.95,NNE,19,2.2,2.2,61,0.00,,---,0.00,VWS V14.01,2013-06-07 21:05:00,
2013-06-07 16:10:00,73.4,59.2,29.95,NE,52,6.3,6.3,61,0.00,,---,0.00,VWS V14.01,2013-06-07 21:10:00,
2013-06-07 16:15:00,73.6,57.9,29.95,NE,52,6.3,6.3,58,0.00,,---,0.00,VWS V14.01,2013-06-07 21:15:00,
2013-06-07 16:20:00,73.6,57.9,29.95,North,0,6.3,6.3,58,0.00,,---,0.00,VWS V14.01,2013-06-07 21:20:00,
2013-06-07 16:25:00,73.9,56.8,29.95,NNE,16,3.6,6.3,55,0.00,,---,0.00,VWS V14.01,2013-06-07 21:25:00,
2013-06-07 16:30:00,73.9,56.8,29.95,NE,44,4.9,4.9,55,0.00,,---,0.00,VWS V14.01,2013-06-07 21:30:00,
2013-06-07 16:35:00,74.1,55.4,29.95,ESE,119,3.1,3.1,52,0.00,,---,0.00,VWS V14.01,2013-06-07 21:35:00,
2013-06-07 16:40:00,74.5,55.7,29.95,NE,48,0.0,3.1,52,0.00,,---,0.00,VWS V14.01,2013-06-07 21:40:00,
2013-06-07 16:45:00,74.7,55.9,29.95,NE,50,3.6,3.6,52,0.00,,---,0.00,VWS V14.01,2013-06-07 21:45:00,
2013-06-07 16:50:00,74.5,54.6,29.92,NE,54,4.0,4.0,50,0.00,,---,0.00,VWS V14.01,2013-06-07 21:50:00,
2013-06-07 16:55:00,74.5,54.6,29.92,ENE,78,3.1,3.1,50,0.00,,---,0.00,VWS V14.01,2013-06-07 21:55:00,
2013-06-07 17:01:00,74.3,54.5,29.92,ENE,68,6.3,6.3,50,0.00,,---,0.00,VWS V14.01,2013-06-07 22:01:00,
2013-06-07 17:06:00,74.3,54.5,29.92,NE,48,6.3,6.3,50,0.00,,---,0.00,VWS V14.01,2013-06-07 22:06:00,
2013-06-07 17:11:00,74.1,54.3,29.92,East,80,3.1,3.1,50,0.00,,---,0.00,VWS V14.01,2013-06-07 22:11:00,
2013-06-07 17:16:00,74.1,54.3,29.92,NE,44,3.6,3.6,50,0.00,,---,0.00,VWS V14.01,2013-06-07 22:16:00,
2013-06-07 17:21:00,73.9,54.7,29.92,NE,44,3.1,3.1,51,0.00,,---,0.00,VWS V14.01,2013-06-07 22:21:00,
2013-06-07 17:26:00,73.9,54.7,29.92,NE,53,6.3,6.3,51,0.00,,---,0.00,VWS V14.01,2013-06-07 22:26:00,
2013-06-07 17:31:00,73.9,54.2,29.92,NE,37,3.1,3.1,50,0.00,,---,0.00,VWS V14.01,2013-06-07 22:31:00,
2013-06-07 17:36:00,74.1,53.8,29.92,NE,35,5.8,5.8,49,0.00,,---,0.00,VWS V14.01,2013-06-07 22:36:00,
2013-06-07 17:41:00,74.1,53.8,29.92,NNE,33,0.0,0.0,49,0.00,,---,0.00,VWS V14.01,2013-06-07 22:41:00,
2013-06-07 17:46:00,74.3,53.9,29.92,ENE,61,4.0,4.0,49,0.00,,---,0.00,VWS V14.01,2013-06-07 22:46:00,
2013-06-07 17:51:00,74.5,54.1,29.92,ENE,61,2.2,2.2,49,0.00,,---,0.00,VWS V14.01,2013-06-07 22:51:00,
2013-06-07 17:57:00,74.7,54.2,29.92,ENE,60,2.7,3.1,49,0.00,,---,0.00,VWS V14.01,2013-06-07 22:57:00,
2013-06-07 18:02:00,74.7,53.7,29.92,ENE,58,3.6,3.6,48,0.00,,---,0.00,VWS V14.01,2013-06-07 23:02:00,
2013-06-07 18:07:00,74.7,53.7,29.92,ESE,110,2.7,2.7,48,0.00,,---,0.00,VWS V14.01,2013-06-07 23:07:00,
2013-06-07 18:12:00,74.8,54.4,29.92,NNE,30,4.9,4.9,49,0.00,,---,0.00,VWS V14.01,2013-06-07 23:12:00,
2013-06-07 18:17:00,74.8,53.8,29.92,NE,48,5.4,5.4,48,0.00,,---,0.00,VWS V14.01,2013-06-07 23:17:00,
2013-06-07 18:22:00,74.5,53.5,29.92,ENE,57,3.1,3.1,48,0.00,,---,0.00,VWS V14.01,2013-06-07 23:22:00,
2013-06-07 18:27:00,74.7,53.7,29.92,ENE,63,2.7,2.7,48,0.00,,---,0.00,VWS V14.01,2013-06-07 23:27:00,
2013-06-07 18:32:00,74.7,53.7,29.92,East,79,2.2,3.1,48,0.00,,---,0.00,VWS V14.01,2013-06-07 23:32:00,
2013-06-07 18:37:00,74.7,53.7,29.89,ESE,108,2.2,2.2,48,0.00,,---,0.00,VWS V14.01,2013-06-07 23:37:00,
2013-06-07 18:42:00,75.4,54.3,29.89,East,101,2.7,2.7,48,0.00,,---,0.00,VWS V14.01,2013-06-07 23:42:00,
2013-06-07 18:47:00,75.4,54.3,29.89,ENE,62,0.0,0.0,48,0.00,,---,0.00,VWS V14.01,2013-06-07 23:47:00,
2013-06-07 18:52:00,76.3,54.0,29.89,ENE,61,4.9,4.9,46,0.00,,---,0.00,VWS V14.01,2013-06-07 23:52:00,
2013-06-07 18:58:00,76.3,53.4,29.89,ENE,63,3.6,3.6,45,0.00,,---,0.00,VWS V14.01,2013-06-07 23:58:00,
2013-06-07 19:03:00,76.3,53.4,29.89,East,81,2.7,2.7,45,0.00,,---,0.00,VWS V14.01,2013-06-08 00:03:00,
2013-06-07 19:08:00,76.6,53.1,29.89,East,100,0.0,2.2,44,0.00,,---,0.00,VWS V14.01,2013-06-08 00:08:00,
2013-06-07 19:13:00,77.0,53.4,29.89,SE,140,4.0,4.0,44,0.00,,---,0.00,VWS V14.01,2013-06-08 00:13:00,
2013-06-07 19:18:00,77.7,54.1,29.89,East,101,0.0,0.0,44,0.00,,---,0.00,VWS V14.01,2013-06-08 00:18:00,
2013-06-07 19:23:00,77.7,54.1,29.89,East,99,0.0,0.0,44,0.00,,---,0.00,VWS V14.01,2013-06-08 00:23:00,
2013-06-07 19:28:00,78.3,54.0,29.89,South,180,0.0,3.6,43,0.00,,---,0.00,VWS V14.01,2013-06-08 00:28:00,
2013-06-07 19:33:00,78.3,54.0,29.89,ESE,103,0.0,0.0,43,0.00,,---,0.00,VWS V14.01,2013-06-08 00:33:00,
2013-06-07 19:38:00,78.3,54.0,29.89,ESE,116,0.0,0.0,43,0.00,,---,0.00,VWS V14.01,2013-06-08 00:38:00,
2013-06-07 19:43:00,77.9,53.0,29.89,SE,131,3.6,3.6,42,0.00,,---,0.00,VWS V14.01,2013-06-08 00:43:00,
2013-06-07 19:48:00,77.9,53.0,29.89,ESE,123,0.0,0.0,42,0.00,,---,0.00,VWS V14.01,2013-06-08 00:48:00,
2013-06-07 19:53:00,77.4,52.5,29.89,ESE,109,0.0,0.0,42,0.00,,---,0.00,VWS V14.01,2013-06-08 00:53:00,
2013-06-07 19:58:00,76.8,52.7,29.89,ESE,119,0.0,0.0,43,0.00,,---,0.00,VWS V14.01,2013-06-08 00:58:00,
2013-06-07 20:03:00,76.3,52.2,29.89,ESE,106,0.0,0.0,43,0.00,,---,0.00,VWS V14.01,2013-06-08 01:03:00,
2013-06-07 20:08:00,76.3,52.2,29.89,ENE,60,0.0,0.0,43,0.00,,---,0.00,VWS V14.01,2013-06-08 01:08:00,
2013-06-07 20:13:00,75.6,51.5,29.89,East,101,0.0,0.0,43,0.00,,---,0.00,VWS V14.01,2013-06-08 01:13:00,
2013-06-07 20:18:00,75.6,51.5,29.89,SE,137,0.0,0.0,43,0.00,,---,0.00,VWS V14.01,2013-06-08 01:18:00,
2013-06-07 20:23:00,74.5,51.8,29.89,SE,137,0.0,0.0,45,0.00,,---,0.00,VWS V14.01,2013-06-08 01:23:00,
2013-06-07 20:28:00,74.1,51.4,29.89,ESE,120,0.0,0.0,45,0.00,,---,0.00,VWS V14.01,2013-06-08 01:28:00,
2013-06-07 20:34:00,74.1,51.4,29.89,ESE,112,0.0,0.0,45,0.00,,---,0.00,VWS V14.01,2013-06-08 01:34:00,
2013-06-07 20:39:00,73.4,51.4,29.89,ESE,112,0.0,0.0,46,0.00,,---,0.00,VWS V14.01,2013-06-08 01:39:00,
2013-06-07 20:44:00,72.9,50.9,29.89,ESE,103,0.0,0.0,46,0.00,,---,0.00,VWS V14.01,2013-06-08 01:44:00,
2013-06-07 20:49:00,72.7,51.3,29.89,ESE,103,0.0,0.0,47,0.00,,---,0.00,VWS V14.01,2013-06-08 01:49:00,
2013-06-07 20:54:00,72.0,50.7,29.89,East,85,0.0,0.0,47,0.00,,---,0.00,VWS V14.01,2013-06-08 01:54:00,
2013-06-07 20:59:00,71.8,50.5,29.89,East,97,0.0,0.0,47,0.00,,---,0.00,VWS V14.01,2013-06-08 01:59:00,
2013-06-07 21:04:00,71.2,50.0,29.89,ESE,106,0.0,0.0,47,0.00,,---,0.00,VWS V14.01,2013-06-08 02:04:00,
2013-06-07 21:09:00,71.2,50.6,29.89,East,100,0.0,0.0,48,0.00,,---,0.00,VWS V14.01,2013-06-08 02:09:00,
2013-06-07 21:14:00,70.7,50.1,29.89,East,95,0.0,0.0,48,0.00,,---,0.00,VWS V14.01,2013-06-08 02:14:00,
2013-06-07 21:19:00,70.3,49.7,29.89,ESE,113,2.2,2.2,48,0.00,,---,0.00,VWS V14.01,2013-06-08 02:19:00,
2013-06-07 21:24:00,70.2,49.6,29.89,East,86,0.0,2.7,48,0.00,,---,0.00,VWS V14.01,2013-06-08 02:24:00,
2013-06-07 21:29:00,70.0,49.4,29.89,ESE,112,2.2,2.2,48,0.00,,---,0.00,VWS V14.01,2013-06-08 02:29:00,
2013-06-07 21:34:00,70.0,49.4,29.89,ESE,104,2.7,2.7,48,0.00,,---,0.00,VWS V14.01,2013-06-08 02:34:00,
2013-06-07 21:40:00,69.8,49.8,29.92,SE,125,3.1,3.6,49,0.00,,---,0.00,VWS V14.01,2013-06-08 02:40:00,
2013-06-07 21:45:00,69.6,49.6,29.92,SSE,151,2.7,2.7,49,0.00,,---,0.00,VWS V14.01,2013-06-08 02:45:00,
2013-06-07 21:50:00,69.6,49.6,29.92,SE,127,2.7,2.7,49,0.00,,---,0.00,VWS V14.01,2013-06-08 02:50:00,
2013-06-07 21:55:00,69.4,49.5,29.92,SE,131,2.7,2.7,49,0.00,,---,0.00,VWS V14.01,2013-06-08 02:55:00,
2013-06-07 22:00:00,69.3,49.8,29.92,SE,131,3.6,3.6,50,0.00,,---,0.00,VWS V14.01,2013-06-08 03:00:00,
2013-06-07 22:05:00,69.3,49.8,29.92,SE,140,3.1,3.1,50,0.00,,---,0.00,VWS V14.01,2013-06-08 03:05:00,
2013-06-07 22:10:00,69.3,50.4,29.92,SE,140,2.7,2.7,51,0.00,,---,0.00,VWS V14.01,2013-06-08 03:10:00,
2013-06-07 22:15:00,69.1,50.2,29.92,SE,139,2.7,2.7,51,0.00,,---,0.00,VWS V14.01,2013-06-08 03:15:00,
2013-06-07 22:20:00,69.1,50.7,29.92,SE,145,2.2,2.2,52,0.00,,---,0.00,VWS V14.01,2013-06-08 03:20:00,
2013-06-07 22:25:00,68.9,50.6,29.92,SE,136,3.6,4.0,52,0.00,,---,0.00,VWS V14.01,2013-06-08 03:25:00,
2013-06-07 22:30:00,68.9,50.6,29.92,SE,137,0.0,0.0,52,0.00,,---,0.00,VWS V14.01,2013-06-08 03:30:00,
2013-06-07 22:35:00,68.5,50.8,29.92,SSE,159,0.0,0.0,53,0.00,,---,0.00,VWS V14.01,2013-06-08 03:35:00,
2013-06-07 22:40:00,68.2,50.4,29.92,SSE,156,0.0,0.0,53,0.00,,---,0.00,VWS V14.01,2013-06-08 03:40:00,
2013-06-07 22:45:00,67.6,50.9,29.92,SE,126,2.2,2.2,55,0.00,,---,0.00,VWS V14.01,2013-06-08 03:45:00,
2013-06-07 22:50:00,67.6,50.9,29.92,SE,128,2.2,2.2,55,0.00,,---,0.00,VWS V14.01,2013-06-08 03:50:00,
2013-06-07 22:55:00,67.3,51.5,29.92,SE,128,0.0,0.0,57,0.00,,---,0.00,VWS V14.01,2013-06-08 03:55:00,
2013-06-07 23:00:00,67.3,52.0,29.92,SE,128,2.2,2.2,58,0.00,,---,0.00,VWS V14.01,2013-06-08 04:00:00,
2013-06-07 23:01:00,67.3,52.0,29.92,SE,128,2.2,2.2,58,0.00,,---,0.00,VWS V14.01,2013-06-08 04:01:00,
2013-06-07 23:02:00,67.3,52.0,29.92,SE,128,2.2,2.2,58,0.00,,---,0.00,VWS V14.01,2013-06-08 04:02:00,
2013-06-07 23:07:00,67.3,52.5,29.92,SE,139,2.7,2.7,59,0.00,,---,0.00,VWS V14.01,2013-06-08 04:07:00,
2013-06-07 23:12:00,67.1,52.8,29.92,ESE,122,2.7,2.7,60,0.00,,---,0.00,VWS V14.01,2013-06-08 04:12:00,
2013-06-07 23:17:00,67.1,53.2,29.92,SE,139,0.0,0.0,61,0.00,,---,0.00,VWS V14.01,2013-06-08 04:17:00,
2013-06-07 23:22:00,67.1,53.7,29.95,SE,128,2.2,2.2,62,0.00,,---,0.00,VWS V14.01,2013-06-08 04:22:00,
2013-06-07 23:27:00,67.1,53.7,29.95,SE,129,3.1,3.1,62,0.00,,---,0.00,VWS V14.01,2013-06-08 04:27:00,
2013-06-07 23:32:00,66.9,53.5,29.95,SE,129,0.0,2.2,62,0.00,,---,0.00,VWS V14.01,2013-06-08 04:32:00,
2013-06-07 23:37:00,66.9,53.9,29.95,ESE,121,2.7,2.7,63,0.00,,---,0.00,VWS V14.01,2013-06-08 04:37:00,
2013-06-07 23:42:00,66.7,53.8,29.95,SE,126,0.0,0.0,63,0.00,,---,0.00,VWS V14.01,2013-06-08 04:42:00,
2013-06-07 23:47:00,66.7,54.2,29.92,ESE,113,0.0,0.0,64,0.00,,---,0.00,VWS V14.01,2013-06-08 04:47:00,
2013-06-07 23:52:00,66.7,54.2,29.92,SE,135,0.0,0.0,64,0.00,,---,0.00,VWS V14.01,2013-06-08 04:52:00,
2013-06-07 23:57:00,66.7,54.2,29.92,SE,125,3.6,3.6,64,0.00,,---,0.00,VWS V14.01,2013-06-08 04:57:00,